Time;durP1;ratioP1;P1;durP2;ratioP2;P2;SDS_P1;SDS_P2;PMS_P1;PMS_P2;Temp;Humidity;BMP_temperature;BMP_pressure;BME280_temperature;BME280_humidity;BME280_pressure;Samples;Min_cycle;Max_cycle;Signal;HPM_P1;HPM_P2
2022/12/19 07:24:21;;;;;;;6.92;4.62;;;;;;;-4.84;100.00;102210.80;1757179;80;21001;-56
2022/12/19 07:26:48;;;;;;;6.40;4.90;;;;;;;-4.65;100.00;102207.66;1755252;80;26822;-56
2022/12/19 07:29:14;;;;;;;7.65;4.80;;;;;;;-4.55;100.00;102209.09;1719459;82;21538;-54
2022/12/19 07:31:41;;;;;;;8.68;5.42;;;;;;;-4.42;100.00;102209.44;1745155;80;22175;-56
2022/12/19 07:34:08;;;;;;;9.58;4.53;;;;;;;-4.32;100.00;102211.73;1737191;80;21088;-55
2022/12/19 07:36:35;;;;;;;7.15;5.10;;;;;;;-4.24;100.00;102205.75;1745387;80;21524;-55
2022/12/19 07:39:02;;;;;;;6.33;4.35;;;;;;;-4.17;100.00;102208.77;1762302;80;21462;-55
2022/12/19 07:44:47;;;;;;;6.62;5.15;;;;;;;-4.07;100.00;102205.04;1688383;82;21555;-61
2022/12/19 07:47:14;;;;;;;6.37;4.47;;;;;;;-3.95;100.00;102204.88;1694312;83;21516;-59
2022/12/19 07:49:41;;;;;;;8.43;5.33;;;;;;;-3.84;100.00;102199.95;1678656;82;21438;-59
2022/12/19 07:52:07;;;;;;;11.35;5.60;;;;;;;-3.71;100.00;102193.81;1693552;82;21607;-59
2022/12/19 07:54:34;;;;;;;9.57;5.83;;;;;;;-3.60;100.00;102193.11;1698484;83;21640;-61
2022/12/19 07:57:01;;;;;;;9.60;6.22;;;;;;;-3.52;100.00;102192.74;1683844;83;23340;-62
2022/12/19 07:59:28;;;;;;;10.60;6.87;;;;;;;-3.44;100.00;102196.14;1684514;83;21710;-58
2022/12/19 08:01:54;;;;;;;9.58;5.45;;;;;;;-3.45;100.00;102185.36;1693314;83;21557;-58
2022/12/19 08:04:21;;;;;;;11.55;6.00;;;;;;;-3.40;100.00;102192.94;1684053;83;21663;-59
2022/12/19 08:06:47;;;;;;;7.58;5.33;;;;;;;-3.36;100.00;102202.58;1683285;82;21622;-59
2022/12/19 08:09:14;;;;;;;7.70;4.83;;;;;;;-3.25;100.00;102210.48;1689933;83;21746;-59
2022/12/19 08:11:41;;;;;;;7.47;4.83;;;;;;;-3.20;100.00;102217.16;1701352;83;21076;-58
2022/12/19 08:14:08;;;;;;;7.78;4.92;;;;;;;-3.11;100.00;102232.23;1688260;83;21579;-60
2022/12/19 08:16:35;;;;;;;6.58;4.47;;;;;;;-3.03;100.00;102225.80;1672809;83;21477;-59
2022/12/19 08:19:02;;;;;;;10.20;5.00;;;;;;;-2.99;100.00;102228.62;1694749;82;21505;-62
2022/12/19 08:21:29;;;;;;;5.78;4.37;;;;;;;-2.91;100.00;102217.45;1686910;82;21550;-62
2022/12/19 08:23:56;;;;;;;6.85;4.58;;;;;;;-2.80;100.00;102222.77;1702676;83;21593;-62
2022/12/19 08:26:25;;;;;;;7.22;4.97;;;;;;;-2.72;100.00;102214.16;1692396;83;21562;-63
2022/12/19 08:28:55;;;;;;;6.85;4.62;;;;;;;-2.63;100.00;102212.48;1684456;82;21625;-62
2022/12/19 08:31:23;;;;;;;7.65;4.75;;;;;;;-2.58;100.00;102210.62;1697942;83;21596;-57
2022/12/19 08:33:55;;;;;;;6.03;4.65;;;;;;;-2.57;100.00;102206.34;1695354;83;22217;-57
2022/12/19 08:36:21;;;;;;;5.85;4.50;;;;;;;-2.50;100.00;102210.14;1681762;83;21446;-59
2022/12/19 08:38:49;;;;;;;5.67;4.22;;;;;;;-2.48;100.00;102212.38;1681755;82;21461;-60
2022/12/19 08:41:16;;;;;;;5.72;4.05;;;;;;;-2.47;100.00;102213.73;1688778;83;21509;-59
2022/12/19 08:48:47;;;;;;;8.10;5.08;;;;;;;-3.02;100.00;102213.42;1777531;78;26321;-59
2022/12/19 08:51:15;;;;;;;7.97;4.37;;;;;;;-2.86;100.00;102220.26;1774177;80;21491;-60
2022/12/19 08:53:42;;;;;;;;;;;;;;;-2.76;100.00;102214.39;1744418;80;21962;-58
2022/12/19 08:56:13;;;;;;;8.18;4.45;;;;;;;-2.71;100.00;102218.89;1761576;80;20503;-58
2022/12/19 08:58:40;;;;;;;6.22;4.95;;;;;;;-2.60;100.00;102219.05;1764295;80;21152;-58
2022/12/19 09:01:09;;;;;;;11.57;5.25;;;;;;;-2.44;100.00;102218.17;1751858;80;21501;-58
2022/12/19 09:03:36;;;;;;;8.05;5.08;;;;;;;-2.37;100.00;102210.83;1756735;78;21068;-59
2022/12/19 09:06:06;;;;;;;7.03;5.25;;;;;;;-2.32;100.00;102205.02;1750085;80;21928;-59
2022/12/19 09:08:32;;;;;;;7.92;5.17;;;;;;;-2.25;100.00;102201.53;1767633;79;21100;-59
2022/12/19 20:21:03;;;;;;;17.55;10.75;;;;;;;-5.04;100.00;102035.09;1768128;78;23402;-65
2022/12/19 20:23:30;;;;;;;14.68;10.80;;;;;;;-5.38;100.00;102033.09;1743562;81;21678;-63
2022/12/19 20:26:01;;;;;;;10.70;7.15;;;;;;;-5.37;100.00;102016.93;1731319;81;21815;-65
2022/12/19 20:28:29;;;;;;;13.48;8.75;;;;;;;-5.36;100.00;102007.55;1739151;81;21694;-65
2022/12/19 20:30:56;;;;;;;12.78;8.40;;;;;;;-5.29;100.00;102010.56;1737493;81;21567;-64
2022/12/19 20:33:23;;;;;;;14.60;8.05;;;;;;;-5.25;100.00;102002.66;1731929;81;21522;-66
2022/12/19 20:35:53;;;;;;;13.38;7.65;;;;;;;-5.18;100.00;101992.34;1747364;81;21433;-66
2022/12/19 20:38:20;;;;;;;10.48;7.45;;;;;;;-5.12;100.00;101985.91;1718524;81;22612;-66
2022/12/19 20:40:47;;;;;;;10.72;7.35;;;;;;;-5.10;100.00;101965.48;1726667;80;21488;-65
2022/12/19 20:43:13;;;;;;;9.50;7.10;;;;;;;-5.13;100.00;101961.03;1748520;80;21500;-66
2022/12/19 20:45:40;;;;;;;12.68;6.95;;;;;;;-5.11;100.00;101961.12;1745228;81;21485;-65
2022/12/19 20:48:06;;;;;;;12.15;7.37;;;;;;;-5.10;100.00;101965.48;1735439;81;21547;-65
2022/12/19 20:50:33;;;;;;;10.72;7.03;;;;;;;-5.05;100.00;101955.47;1733394;81;21806;-67
2022/12/19 20:52:59;;;;;;;10.72;7.10;;;;;;;-5.03;100.00;101947.05;1732968;81;21482;-65
2022/12/19 20:55:26;;;;;;;9.67;6.93;;;;;;;-4.99;100.00;101945.55;1746686;80;21550;-65
2022/12/19 20:57:53;;;;;;;13.28;7.92;;;;;;;-4.96;100.00;101947.02;1746460;81;21587;-68
2022/12/19 21:00:21;;;;;;;11.55;8.05;;;;;;;-4.93;100.00;101946.80;1739738;81;21451;-65
2022/12/19 21:02:48;;;;;;;12.10;8.20;;;;;;;-5.00;100.00;101947.23;1745055;81;21814;-65
2022/12/19 21:05:14;;;;;;;14.75;8.78;;;;;;;-4.98;100.00;101940.51;1747456;81;21548;-66
2022/12/19 21:07:41;;;;;;;8.98;6.50;;;;;;;-5.00;100.00;101928.40;1730994;81;21453;-66
2022/12/19 21:10:08;;;;;;;13.32;8.05;;;;;;;-5.00;100.00;101923.27;1744090;80;21516;-65
2022/12/19 21:12:35;;;;;;;12.78;8.73;;;;;;;-5.04;100.00;101922.61;1730128;81;22249;-65
2022/12/19 21:15:02;;;;;;;12.58;7.42;;;;;;;-5.03;100.00;101920.11;1738645;81;21853;-65
2022/12/19 21:17:29;;;;;;;9.38;6.92;;;;;;;-5.00;100.00;101923.27;1734872;81;21658;-62
2022/12/19 21:19:55;;;;;;;10.10;6.87;;;;;;;-4.99;100.00;101915.66;1738909;81;21054;-63
2022/12/19 21:22:22;;;;;;;9.93;6.95;;;;;;;-4.97;100.00;101908.02;1740391;81;21585;-62
2022/12/19 21:24:48;;;;;;;9.30;6.67;;;;;;;-4.92;100.00;101909.17;1734084;80;20944;-62
2022/12/19 21:27:15;;;;;;;8.93;6.30;;;;;;;-4.90;100.00;101911.42;1734740;81;22212;-62
2022/12/19 21:29:42;;;;;;;7.80;5.87;;;;;;;-4.89;100.00;101913.21;1740020;81;21641;-62
2022/12/19 21:32:08;;;;;;;10.43;6.50;;;;;;;-4.84;100.00;101908.32;1741073;81;21739;-63
2022/12/19 21:34:35;;;;;;;7.60;6.03;;;;;;;-4.83;100.00;101907.13;1738811;81;21170;-63
2022/12/19 21:37:01;;;;;;;8.70;5.80;;;;;;;-4.79;100.00;101910.34;1739899;81;21459;-63
2022/12/19 21:39:28;;;;;;;7.03;5.53;;;;;;;-4.76;100.00;101912.22;1741584;81;22111;-62
2022/12/19 21:41:55;;;;;;;9.38;6.33;;;;;;;-4.75;100.00;101902.01;1739629;81;21075;-62
2022/12/19 21:44:21;;;;;;;14.83;6.42;;;;;;;-4.71;100.00;101896.65;1741007;80;21519;-62
2022/12/19 21:46:48;;;;;;;7.47;5.55;;;;;;;-4.73;100.00;101890.17;1731278;80;21806;-62
2022/12/19 21:49:15;;;;;;;8.78;6.17;;;;;;;-4.75;100.00;101888.30;1745188;81;21461;-62
2022/12/19 21:51:41;;;;;;;7.78;6.05;;;;;;;-4.75;100.00;101884.45;1743267;81;21798;-62
2022/12/19 21:54:08;;;;;;;9.00;6.25;;;;;;;-4.77;100.00;101876.66;1737436;81;21528;-62
2022/12/19 21:56:38;;;;;;;7.92;5.37;;;;;;;-4.75;100.00;101876.75;1744771;81;21555;-62
2022/12/19 21:59:11;;;;;;;13.28;6.58;;;;;;;-4.75;100.00;101864.79;1740205;81;21622;-62
2022/12/19 22:01:38;;;;;;;14.70;5.92;;;;;;;-4.76;100.00;101867.30;1714682;81;21630;-62
2022/12/19 22:04:07;;;;;;;10.43;6.45;;;;;;;-4.78;100.00;101859.51;1742297;81;21900;-62
2022/12/19 22:06:35;;;;;;;11.93;6.05;;;;;;;-4.79;100.00;101853.87;1735731;81;21577;-62
2022/12/19 22:09:03;;;;;;;12.78;6.47;;;;;;;-4.78;100.00;101849.24;1736514;81;20964;-62
2022/12/19 22:11:30;;;;;;;11.22;6.70;;;;;;;-4.77;100.00;101849.70;1741426;81;21485;-62
2022/12/19 22:13:59;;;;;;;10.28;6.28;;;;;;;-4.76;100.00;101842.91;1737447;81;21047;-62
2022/12/19 22:16:26;;;;;;;7.62;5.22;;;;;;;-4.75;100.00;101846.82;1742599;81;21788;-62
2022/12/19 22:18:53;;;;;;;9.13;5.22;;;;;;;-4.73;100.00;101846.53;1741978;81;21623;-62
2022/12/19 22:21:20;;;;;;;;;;;;;;;-4.70;100.00;101844.52;1738578;81;21445;-62
2022/12/19 22:23:46;;;;;;;8.35;5.47;;;;;;;-4.76;100.00;101832.23;1747726;80;20148;-62
2022/12/19 22:26:19;;;;;;;7.08;5.33;;;;;;;-4.72;100.00;101821.73;1744774;81;21563;-62
2022/12/19 22:28:48;;;;;;;5.72;4.72;;;;;;;-4.73;100.00;101824.72;1742069;80;21815;-61
2022/12/19 22:31:31;;;;;;;6.70;4.62;;;;;;;-4.68;100.00;101824.08;1744484;80;21518;-62
2022/12/19 22:34:04;;;;;;;6.97;5.22;;;;;;;-4.67;100.00;101816.46;1741091;81;21417;-62
2022/12/19 22:36:32;;;;;;;6.92;4.80;;;;;;;-4.65;100.00;101813.95;1736241;81;21063;-62
2022/12/19 22:38:59;;;;;;;;;;;;;;;-4.63;100.00;101817.48;1748323;81;21604;-62
2022/12/19 22:41:27;;;;;;;9.65;5.33;;;;;;;-4.68;100.00;101809.95;1741655;81;21503;-62
2022/12/19 22:43:54;;;;;;;7.67;5.62;;;;;;;-4.62;100.00;101808.99;1736515;81;21515;-62
2022/12/19 22:46:27;;;;;;;7.53;5.55;;;;;;;-4.61;100.00;101803.95;1738609;81;21535;-61
2022/12/19 22:48:57;;;;;;;8.25;4.70;;;;;;;-4.58;100.00;101805.37;1739622;81;21011;-62
2022/12/19 22:51:24;;;;;;;6.60;4.75;;;;;;;-4.56;100.00;101801.61;1742827;81;21616;-62
2022/12/19 22:53:51;;;;;;;7.78;5.72;;;;;;;-4.57;100.00;101793.03;1736306;81;21702;-62
2022/12/19 22:56:21;;;;;;;8.08;4.80;;;;;;;-4.55;100.00;101782.44;1738680;81;20975;-63
2022/12/19 22:58:49;;;;;;;8.05;5.08;;;;;;;-4.53;100.00;101774.82;1749824;80;21405;-62
2022/12/19 23:01:30;;;;;;;9.23;5.53;;;;;;;-4.52;100.00;101767.20;1743453;80;21563;-63
2022/12/19 23:03:57;;;;;;;7.17;5.08;;;;;;;-4.48;100.00;101771.19;1739917;81;21511;-63
